Time;durP1;ratioP1;P1;durP2;ratioP2;P2;SDS_P1;SDS_P2;PMS_P1;PMS_P2;Temp;Humidity;BMP_temperature;BMP_pressure;BME280_temperature;BME280_humidity;BME280_pressure;Samples;Min_cycle;Max_cycle;Signal;HPM_P1;HPM_P2
2020/12/12 00:01:00;;;;;;;49.78;27.73;;;;;;;7.46;77.58;99944.00;4970290;28;20042;-60
2020/12/12 00:03:27;;;;;;;45.83;26.77;;;;;;;7.46;77.61;99943.16;4969380;28;20055;-60
2020/12/12 00:05:53;;;;;;;40.17;25.10;;;;;;;7.46;77.82;99936.16;4970305;28;20098;-60
2020/12/12 00:08:19;;;;;;;45.33;25.65;;;;;;;7.46;77.60;99937.94;4970158;28;20483;-61
2020/12/12 00:10:47;;;;;;;36.00;23.23;;;;;;;7.46;77.62;99943.16;4970276;28;20558;-60
2020/12/12 00:13:15;;;;;;;42.45;24.30;;;;;;;7.45;77.79;99951.91;4969980;28;20762;-60
2020/12/12 00:15:42;;;;;;;39.55;25.05;;;;;;;7.44;77.53;99950.22;4970083;28;20043;-60
2020/12/12 00:18:09;;;;;;;41.47;23.25;;;;;;;7.41;77.59;99939.97;4970350;28;20078;-60
2020/12/12 00:20:35;;;;;;;33.00;22.70;;;;;;;7.38;77.86;99945.34;4970241;28;20098;-60
2020/12/12 00:23:02;;;;;;;35.33;23.52;;;;;;;7.34;77.84;99947.31;4970062;28;20105;-60
2020/12/12 00:25:28;;;;;;;39.08;24.73;;;;;;;7.33;78.04;99938.63;4970233;28;20053;-60
2020/12/12 00:27:54;;;;;;;36.85;22.95;;;;;;;7.33;78.10;99936.03;4969652;28;20054;-60
2020/12/12 00:30:20;;;;;;;34.67;23.85;;;;;;;7.35;77.92;99933.31;4970454;28;20643;-60
2020/12/12 00:32:47;;;;;;;42.60;25.23;;;;;;;7.37;77.91;99928.88;4970051;28;20051;-60
2020/12/12 00:35:13;;;;;;;34.13;23.00;;;;;;;7.39;77.78;99924.41;4970162;28;20054;-60
2020/12/12 00:37:39;;;;;;;35.38;23.13;;;;;;;7.40;78.08;99922.63;4969912;28;20062;-60
2020/12/12 00:40:05;;;;;;;35.97;24.20;;;;;;;7.40;77.83;99930.47;4969889;28;20652;-61
2020/12/12 00:42:31;;;;;;;39.95;23.42;;;;;;;7.39;77.76;99913.13;4969800;28;20521;-60
2020/12/12 00:44:58;;;;;;;33.40;22.20;;;;;;;7.40;78.02;99909.59;4969879;28;20480;-60
2020/12/12 00:47:24;;;;;;;38.28;24.45;;;;;;;7.40;77.72;99917.41;4970158;28;20496;-60
2020/12/12 00:49:50;;;;;;;37.05;23.98;;;;;;;7.40;77.94;99917.41;4969975;28;20567;-60
2020/12/12 00:52:16;;;;;;;35.55;23.20;;;;;;;7.40;77.74;99926.06;4969875;28;20051;-60
2020/12/12 00:54:42;;;;;;;33.55;22.45;;;;;;;7.41;77.72;99919.09;4970108;28;20494;-60
2020/12/12 00:57:10;;;;;;;39.08;24.17;;;;;;;7.41;77.75;99917.31;4970226;28;20573;-60
2020/12/12 00:59:36;;;;;;;39.33;23.40;;;;;;;7.42;77.72;99915.56;4973340;28;20099;-60
2020/12/12 01:02:03;;;;;;;34.35;22.48;;;;;;;7.42;77.64;99918.19;4973473;28;20043;-60
2020/12/12 01:04:29;;;;;;;36.33;22.45;;;;;;;7.40;77.78;99917.41;4973383;28;20086;-60
2020/12/12 01:06:55;;;;;;;36.00;22.05;;;;;;;7.40;77.84;99917.41;4973300;28;20074;-60
2020/12/12 01:09:21;;;;;;;37.00;23.23;;;;;;;7.39;77.69;99918.34;4973361;28;20050;-60
2020/12/12 01:11:47;;;;;;;33.72;22.52;;;;;;;7.36;77.83;99914.13;4973408;28;20098;-60
2020/12/12 01:14:14;;;;;;;36.72;23.65;;;;;;;7.38;77.99;99924.47;4972896;28;20566;-60
2020/12/12 01:16:40;;;;;;;34.90;22.08;;;;;;;7.38;77.93;99920.13;4973158;28;20050;-60
2020/12/12 01:19:06;;;;;;;34.80;22.60;;;;;;;7.37;77.87;99915.81;4973119;28;20054;-60
2020/12/12 01:21:32;;;;;;;35.38;22.48;;;;;;;7.36;78.05;99914.13;4973394;28;20051;-60
2020/12/12 01:23:58;;;;;;;36.30;24.08;;;;;;;7.37;77.74;99915.00;4972964;28;20479;-60
2020/12/12 01:26:24;;;;;;;35.80;23.00;;;;;;;7.36;77.78;99914.13;4973218;28;20055;-60
2020/12/12 01:28:50;;;;;;;36.53;22.58;;;;;;;7.37;77.85;99909.78;4972690;28;20109;-60
2020/12/12 01:31:17;;;;;;;37.30;23.23;;;;;;;7.38;77.90;99916.66;4972902;28;20047;-60
2020/12/12 01:33:43;;;;;;;36.83;22.27;;;;;;;7.38;77.86;99921.88;4972650;28;20050;-60
2020/12/12 01:36:10;;;;;;;37.45;23.85;;;;;;;7.37;78.12;99908.00;4972495;28;20090;-60
2020/12/12 01:38:37;;;;;;;37.65;23.50;;;;;;;7.38;77.92;99906.22;4973739;28;20046;-60
2020/12/12 01:41:03;;;;;;;34.95;22.90;;;;;;;7.37;78.04;99908.00;4975949;28;20055;-60
2020/12/12 01:43:30;;;;;;;34.90;22.60;;;;;;;7.38;78.01;99914.91;4976105;28;20101;-60
2020/12/12 01:45:56;;;;;;;31.02;21.50;;;;;;;7.38;77.80;99904.47;4975959;28;20074;-59
2020/12/12 01:48:22;;;;;;;40.67;22.92;;;;;;;7.38;78.06;99900.97;4976115;28;20407;-59
2020/12/12 01:50:49;;;;;;;37.72;23.67;;;;;;;7.37;77.96;99892.31;4976082;28;20097;-59
2020/12/12 01:53:17;;;;;;;37.28;21.90;;;;;;;7.39;77.93;99892.22;4975873;28;20054;-59
2020/12/12 01:55:48;;;;;;;32.55;21.80;;;;;;;7.39;77.78;99889.63;4975691;28;20105;-60
2020/12/12 01:58:15;;;;;;;38.00;23.52;;;;;;;7.39;77.99;99885.25;4975638;28;20113;-59
2020/12/12 02:00:42;;;;;;;38.58;23.20;;;;;;;7.40;78.05;99894.75;4975777;28;20451;-60
2020/12/12 02:03:10;;;;;;;50.38;23.98;;;;;;;7.40;78.14;99891.31;4975673;28;20088;-60
2020/12/12 02:05:38;;;;;;;41.55;24.92;;;;;;;7.40;77.91;99883.47;4975582;28;20050;-59
2020/12/12 02:08:05;;;;;;;44.70;23.65;;;;;;;7.40;78.05;99888.69;4975259;28;20050;-60
2020/12/12 02:10:31;;;;;;;48.05;24.40;;;;;;;7.39;78.19;99879.19;4975619;28;20476;-60
2020/12/12 02:12:58;;;;;;;41.08;20.98;;;;;;;7.40;78.28;99883.47;4975629;28;20047;-60
2020/12/12 02:15:24;;;;;;;39.25;22.80;;;;;;;7.38;78.15;99883.56;4975596;28;20054;-60
2020/12/12 02:17:50;;;;;;;40.58;24.10;;;;;;;7.33;78.42;99883.81;4975391;28;20113;-60
2020/12/12 02:20:16;;;;;;;39.47;23.50;;;;;;;7.34;78.44;99884.69;4975352;28;20058;-60
2020/12/12 02:22:45;;;;;;;45.78;23.73;;;;;;;7.33;78.64;99872.56;4975398;28;20043;-60
2020/12/12 02:25:12;;;;;;;39.50;23.50;;;;;;;7.35;78.68;99870.69;4974835;28;20506;-59
2020/12/12 02:27:38;;;;;;;40.50;23.98;;;;;;;7.35;78.58;99861.09;4975227;28;20055;-60
2020/12/12 02:30:06;;;;;;;39.10;23.48;;;;;;;7.38;78.76;99859.22;4975265;28;20101;-59
2020/12/12 02:32:32;;;;;;;41.67;23.95;;;;;;;7.38;78.60;99862.69;4975248;28;20066;-59
2020/12/12 02:34:59;;;;;;;37.80;22.73;;;;;;;7.40;78.62;99863.44;4975113;28;20054;-60
2020/12/12 02:37:26;;;;;;;44.72;23.38;;;;;;;7.39;78.66;99864.38;4975091;28;20057;-60
2020/12/12 02:39:52;;;;;;;42.28;24.52;;;;;;;7.38;78.48;99865.31;4975070;28;20043;-60
2020/12/12 02:42:18;;;;;;;36.65;23.67;;;;;;;7.39;78.52;99863.53;4974926;28;20047;-60
2020/12/12 02:44:49;;;;;;;48.70;24.42;;;;;;;7.38;78.64;99859.22;4974903;28;20050;-59
2020/12/12 02:47:15;;;;;;;38.25;23.65;;;;;;;7.37;78.48;99862.78;4974875;28;20101;-60
2020/12/12 02:49:41;;;;;;;35.90;21.98;;;;;;;7.34;78.43;99869.84;4974902;28;20042;-60
2020/12/12 02:52:07;;;;;;;40.47;21.02;;;;;;;7.32;78.55;99874.31;4974809;28;20462;-60
2020/12/12 02:54:33;;;;;;;36.83;22.30;;;;;;;7.28;78.79;99874.59;4974475;28;20043;-60
2020/12/12 02:56:59;;;;;;;48.88;25.27;;;;;;;7.26;78.96;99874.69;4974565;28;20113;-60
2020/12/12 02:59:25;;;;;;;43.40;24.70;;;;;;;7.23;79.04;99874.00;4974855;28;20101;-60
2020/12/12 03:01:51;;;;;;;39.40;24.05;;;;;;;7.21;78.92;99865.41;4974576;28;20042;-60
2020/12/12 03:04:17;;;;;;;44.95;23.50;;;;;;;7.21;79.20;99874.06;4974521;28;20515;-60
2020/12/12 03:06:46;;;;;;;41.10;24.45;;;;;;;7.23;79.20;99863.56;4974522;28;20055;-60
2020/12/12 03:09:12;;;;;;;40.35;24.10;;;;;;;7.23;79.21;99867.00;4974490;28;20055;-60
2020/12/12 03:11:38;;;;;;;43.78;25.42;;;;;;;7.24;79.29;99860.00;4974386;28;20565;-59
2020/12/12 03:14:04;;;;;;;54.72;25.25;;;;;;;7.24;79.29;99844.34;4974369;28;20050;-59
2020/12/12 03:16:30;;;;;;;47.30;26.55;;;;;;;7.24;79.26;99837.38;4974470;28;20047;-60
2020/12/12 03:18:57;;;;;;;44.05;25.10;;;;;;;7.26;79.14;99842.50;4974304;28;20125;-60
2020/12/12 03:21:23;;;;;;;41.67;24.55;;;;;;;7.27;79.30;99839.81;4973818;28;20102;-60
2020/12/12 03:23:49;;;;;;;45.72;25.08;;;;;;;7.29;79.25;99837.97;4974283;28;20055;-60
2020/12/12 03:26:15;;;;;;;52.47;25.88;;;;;;;7.29;79.27;99840.56;4974142;28;20070;-60
2020/12/12 03:28:41;;;;;;;39.55;23.15;;;;;;;7.32;79.29;99839.56;4974211;28;20046;-60
2020/12/12 03:31:08;;;;;;;40.47;23.98;;;;;;;7.33;79.17;99846.47;4974202;28;20578;-60
2020/12/12 03:33:34;;;;;;;42.40;24.58;;;;;;;7.33;79.12;99836.84;4974137;28;20514;-59
2020/12/12 03:36:01;;;;;;;39.97;22.65;;;;;;;7.34;79.34;99833.31;4973952;28;20407;-60
2020/12/12 03:38:27;;;;;;;40.10;23.13;;;;;;;7.33;79.16;99836.84;4974044;28;20055;-60
2020/12/12 03:40:53;;;;;;;36.85;23.38;;;;;;;7.34;79.20;99841.16;4973907;28;20058;-60
2020/12/12 03:43:19;;;;;;;40.88;23.05;;;;;;;7.32;78.98;99836.94;4974051;28;20050;-60
2020/12/12 03:45:45;;;;;;;42.17;23.98;;;;;;;7.32;79.05;99835.16;4974035;28;20050;-60
2020/12/12 03:48:12;;;;;;;43.22;24.88;;;;;;;7.30;79.17;99837.03;4973828;28;20059;-60
2020/12/12 03:50:38;;;;;;;42.45;23.98;;;;;;;7.27;79.17;99839.81;4973824;28;20047;-60
2020/12/12 03:53:04;;;;;;;39.58;24.38;;;;;;;7.27;79.28;99839.81;4973772;28;20455;-60
2020/12/12 03:55:30;;;;;;;40.50;23.40;;;;;;;7.28;79.33;99835.44;4973734;28;20046;-60
2020/12/12 03:57:57;;;;;;;40.08;23.92;;;;;;;7.29;79.17;99837.13;4973582;28;20050;-60
2020/12/12 04:00:23;;;;;;;42.47;24.25;;;;;;;7.31;79.22;99837.88;4973730;28;20054;-60
2020/12/12 04:02:49;;;;;;;44.85;25.20;;;;;;;7.29;79.06;99824.09;4971306;28;20059;-60
2020/12/12 04:05:15;;;;;;;37.17;24.15;;;;;;;7.30;79.31;99824.00;4970212;28;20082;-60
2020/12/12 04:07:41;;;;;;;41.55;24.40;;;;;;;7.28;79.02;99825.84;4970610;28;20055;-60
2020/12/12 04:10:07;;;;;;;40.65;24.33;;;;;;;7.28;79.09;99828.44;4970284;28;20101;-60
2020/12/12 04:12:33;;;;;;;42.97;24.25;;;;;;;7.28;79.01;99828.44;4970200;28;20050;-60
2020/12/12 04:14:59;;;;;;;41.42;24.42;;;;;;;7.30;79.08;99824.00;4970112;28;20459;-60
2020/12/12 04:17:25;;;;;;;43.78;24.20;;;;;;;7.29;79.04;99824.91;4970148;28;20109;-60
2020/12/12 04:19:52;;;;;;;39.78;23.25;;;;;;;7.29;78.93;99818.88;4970355;28;20054;-60
2020/12/12 04:22:18;;;;;;;42.13;24.58;;;;;;;7.29;78.99;99816.25;4970111;28;20105;-60
2020/12/12 04:24:44;;;;;;;44.55;25.02;;;;;;;7.31;78.89;99824.81;4970484;28;20050;-60
2020/12/12 04:27:10;;;;;;;39.55;23.52;;;;;;;7.29;79.04;99829.31;4970260;28;20510;-60
2020/12/12 04:29:36;;;;;;;46.28;25.52;;;;;;;7.27;78.86;99824.16;4970214;28;20042;-59
2020/12/12 04:32:04;;;;;;;44.33;24.80;;;;;;;7.29;79.02;99837.13;4972296;28;20101;-60
2020/12/12 04:34:30;;;;;;;42.65;23.20;;;;;;;7.28;79.19;99835.44;4973949;28;20051;-60
2020/12/12 04:36:56;;;;;;;42.35;24.80;;;;;;;7.28;79.17;99831.06;4973879;28;20488;-60
2020/12/12 04:39:22;;;;;;;41.22;24.65;;;;;;;7.28;79.21;99830.22;4974212;28;20055;-60
2020/12/12 04:41:51;;;;;;;44.47;25.08;;;;;;;7.28;79.23;99836.28;4973764;28;20050;-60
2020/12/12 04:44:18;;;;;;;44.50;24.77;;;;;;;7.26;79.13;99827.72;4974164;28;20447;-60
2020/12/12 04:46:44;;;;;;;42.45;25.00;;;;;;;7.27;79.13;99826.75;4973912;28;20105;-60
2020/12/12 04:49:11;;;;;;;44.50;26.02;;;;;;;7.27;79.28;99820.72;4973830;28;20051;-60
2020/12/12 04:51:38;;;;;;;45.58;24.70;;;;;;;7.28;79.08;99823.22;4973838;28;20043;-59
2020/12/12 04:54:08;;;;;;;40.72;23.23;;;;;;;7.30;79.03;99823.13;4973400;28;20078;-60
2020/12/12 04:56:36;;;;;;;38.05;22.55;;;;;;;7.30;79.17;99815.31;4973489;28;20101;-60
2020/12/12 04:59:07;;;;;;;38.40;23.20;;;;;;;7.31;78.88;99809.16;4973476;28;20129;-60
2020/12/12 05:01:33;;;;;;;37.22;22.13;;;;;;;7.31;78.73;99812.63;4973506;28;20451;-59
2020/12/12 05:04:02;;;;;;;36.03;22.20;;;;;;;7.31;78.74;99815.25;4973630;28;20055;-59
2020/12/12 05:06:30;;;;;;;37.78;22.65;;;;;;;7.29;78.81;99811.88;4973502;28;20054;-61
2020/12/12 05:08:56;;;;;;;39.65;23.70;;;;;;;7.28;78.82;99818.00;4973164;28;20492;-60
2020/12/12 05:11:23;;;;;;;39.90;23.75;;;;;;;7.28;78.77;99812.78;4973577;28;20050;-60
2020/12/12 05:13:50;;;;;;;39.35;22.92;;;;;;;7.30;78.69;99807.47;4973576;28;20117;-60
2020/12/12 05:16:17;;;;;;;40.90;23.45;;;;;;;7.31;78.82;99812.63;4973150;28;20191;-60
2020/12/12 05:18:44;;;;;;;45.50;25.60;;;;;;;7.31;78.70;99807.41;4973135;28;20129;-60
2020/12/12 05:21:11;;;;;;;42.90;25.63;;;;;;;7.33;78.74;99815.16;4973376;28;20050;-60
2020/12/12 05:23:38;;;;;;;46.08;24.58;;;;;;;7.32;78.82;99816.06;4973163;28;20110;-60
2020/12/12 05:26:05;;;;;;;42.30;24.67;;;;;;;7.33;78.93;99817.75;4973071;28;20089;-61
2020/12/12 05:28:31;;;;;;;47.47;26.15;;;;;;;7.33;78.65;99823.81;4973092;28;20495;-61
2020/12/12 05:30:57;;;;;;;37.90;24.17;;;;;;;7.33;78.71;99813.38;4973227;28;20059;-62
2020/12/12 05:33:26;;;;;;;39.13;24.23;;;;;;;7.33;78.71;99810.75;4973244;28;20500;-60
2020/12/12 05:35:53;;;;;;;39.05;24.02;;;;;;;7.33;78.72;99810.75;4973192;28;20042;-62
2020/12/12 05:38:19;;;;;;;43.60;25.17;;;;;;;7.33;78.61;99818.59;4972995;28;20051;-61
2020/12/12 05:40:53;;;;;;;41.13;24.08;;;;;;;7.34;78.52;99822.88;4972981;28;20484;-62
2020/12/12 05:43:19;;;;;;;35.05;22.55;;;;;;;7.33;78.56;99815.16;4972614;28;20051;-61
2020/12/12 05:45:45;;;;;;;33.35;21.48;;;;;;;7.34;78.52;99817.66;4972868;28;20058;-61
2020/12/12 05:48:12;;;;;;;38.63;24.30;;;;;;;7.35;78.59;99821.94;4972660;28;20094;-61
2020/12/12 05:50:39;;;;;;;38.20;24.58;;;;;;;7.34;78.58;99812.44;4972775;28;20094;-61
2020/12/12 05:53:06;;;;;;;40.17;23.88;;;;;;;7.34;78.38;99814.22;4972620;28;20042;-62
2020/12/12 05:55:35;;;;;;;39.60;23.50;;;;;;;7.34;78.43;99817.66;4972323;28;20106;-62
2020/12/12 05:58:02;;;;;;;37.58;22.42;;;;;;;7.33;78.35;99804.72;4972422;28;20522;-59
2020/12/12 06:00:30;;;;;;;38.67;24.40;;;;;;;7.33;78.31;99805.53;4972371;28;20053;-59
2020/12/12 06:03:10;;;;;;;39.00;23.67;;;;;;;7.32;78.23;99803.84;4972380;28;20053;-59
2020/12/12 06:05:43;;;;;;;41.65;23.58;;;;;;;7.34;78.15;99815.06;4972427;28;20051;-59
2020/12/12 06:08:12;;;;;;;35.00;22.40;;;;;;;7.33;78.13;99810.75;4972294;28;20199;-59
2020/12/12 06:10:47;;;;;;;39.05;23.60;;;;;;;7.33;78.08;99810.75;4972247;28;20496;-59
2020/12/12 06:13:18;;;;;;;36.92;22.23;;;;;;;7.32;78.08;99809.06;4972172;28;20146;-59
2020/12/12 06:15:50;;;;;;;39.05;22.88;;;;;;;7.32;77.87;99810.84;4971019;28;20046;-59
2020/12/12 06:18:37;;;;;;;39.22;23.90;;;;;;;7.32;78.08;99813.47;4972221;28;20055;-59
2020/12/12 06:21:07;;;;;;;41.83;24.25;;;;;;;7.31;78.10;99822.22;4972113;28;20055;-59
2020/12/12 06:23:38;;;;;;;36.78;22.40;;;;;;;7.32;78.09;99816.06;4972180;28;20055;-59
2020/12/12 06:26:06;;;;;;;34.72;21.58;;;;;;;7.29;77.74;99822.31;4971698;28;20139;-60
2020/12/12 06:28:40;;;;;;;40.17;23.95;;;;;;;7.29;77.99;99818.88;4971979;28;20105;-59
2020/12/12 06:31:14;;;;;;;36.42;22.58;;;;;;;7.28;77.79;99820.63;4971811;28;20078;-59
2020/12/12 06:33:52;;;;;;;39.42;23.33;;;;;;;7.28;77.84;99818.00;4971505;28;20504;-59
2020/12/12 06:36:45;;;;;;;36.70;22.83;;;;;;;7.30;77.73;99815.31;4972323;28;20059;-59
2020/12/12 06:39:22;;;;;;;37.60;23.08;;;;;;;7.30;77.85;99821.38;4971741;28;20051;-59
2020/12/12 06:41:53;;;;;;;38.50;22.45;;;;;;;7.31;78.02;99809.16;4971679;28;20093;-59
2020/12/12 06:44:41;;;;;;;37.53;22.60;;;;;;;7.31;77.88;99817.00;4972072;28;20102;-59
2020/12/12 06:47:08;;;;;;;37.30;22.88;;;;;;;7.31;77.86;99814.38;4971529;28;20051;-59
2020/12/12 06:49:35;;;;;;;39.83;23.27;;;;;;;7.31;77.79;99812.63;4971604;28;20141;-59
2020/12/12 06:52:03;;;;;;;34.65;21.73;;;;;;;7.31;77.79;99811.78;4971640;28;20539;-59
2020/12/12 06:54:29;;;;;;;36.40;22.45;;;;;;;7.33;77.90;99813.38;4970941;28;20051;-59
2020/12/12 06:56:55;;;;;;;41.40;24.67;;;;;;;7.33;77.93;99818.59;4970919;28;20051;-59
2020/12/12 06:59:37;;;;;;;42.20;25.08;;;;;;;7.34;77.97;99822.06;4971710;28;20392;-60
2020/12/12 07:02:07;;;;;;;41.83;25.40;;;;;;;7.34;77.59;99829.88;4971508;28;20042;-59
2020/12/12 07:04:35;;;;;;;44.78;24.70;;;;;;;7.35;77.55;99837.63;4971338;28;20058;-59
2020/12/12 07:07:07;;;;;;;41.50;25.38;;;;;;;7.33;77.66;99843.84;4971552;28;20047;-60
2020/12/12 07:09:35;;;;;;;39.78;24.42;;;;;;;7.34;77.80;99850.75;4971474;28;20101;-61
2020/12/12 07:12:01;;;;;;;42.50;24.73;;;;;;;7.33;77.77;99849.06;4971262;28;20050;-61
2020/12/12 07:14:27;;;;;;;40.97;25.98;;;;;;;7.35;77.97;99852.41;4971131;28;20054;-60
2020/12/12 07:16:59;;;;;;;39.65;24.83;;;;;;;7.33;77.69;99851.69;4970964;28;20058;-61
2020/12/12 07:19:34;;;;;;;43.38;24.90;;;;;;;7.32;78.12;99857.81;4971011;28;20047;-61
2020/12/12 07:22:02;;;;;;;38.10;23.90;;;;;;;7.33;78.17;99860.34;4971002;28;20058;-61
2020/12/12 07:24:28;;;;;;;40.10;23.95;;;;;;;7.33;78.22;99869.94;4971042;28;20050;-60
2020/12/12 07:26:55;;;;;;;39.90;23.98;;;;;;;7.34;78.02;99869.03;4970905;28;20451;-61
2020/12/12 07:29:22;;;;;;;37.72;22.65;;;;;;;7.36;78.15;99867.16;4971179;28;20050;-61
2020/12/12 07:31:50;;;;;;;39.95;24.33;;;;;;;7.38;78.23;99867.91;4971071;28;20047;-60
2020/12/12 07:34:24;;;;;;;41.70;23.90;;;;;;;7.39;78.20;99863.53;4970674;28;20121;-60
2020/12/12 07:36:58;;;;;;;41.78;24.27;;;;;;;7.41;78.14;99866.91;4970923;28;20050;-60
2020/12/12 07:39:46;;;;;;;40.92;25.38;;;;;;;7.41;77.91;99865.13;4970747;28;20086;-60
2020/12/12 07:42:12;;;;;;;39.33;23.75;;;;;;;7.42;78.08;99868.59;4970606;28;20046;-61
2020/12/12 07:44:52;;;;;;;41.85;23.90;;;;;;;7.42;78.01;99864.19;4970684;28;20043;-60
2020/12/12 07:47:18;;;;;;;43.67;24.60;;;;;;;7.43;77.92;99865.88;4970573;28;20081;-60
2020/12/12 07:49:44;;;;;;;49.13;27.30;;;;;;;7.43;78.26;99858.03;4970880;28;20051;-60
2020/12/12 07:52:12;;;;;;;48.95;27.25;;;;;;;7.47;78.05;99871.78;4969030;28;20466;-61
2020/12/12 07:54:43;;;;;;;49.35;26.15;;;;;;;7.48;78.02;99879.50;4969535;28;20098;-60
2020/12/12 07:57:13;;;;;;;54.33;28.08;;;;;;;7.52;78.13;99885.41;4969365;28;20055;-60
2020/12/12 07:59:40;;;;;;;54.03;29.33;;;;;;;7.53;78.21;99879.25;4969233;28;20113;-60
2020/12/12 08:02:09;;;;;;;55.50;29.17;;;;;;;7.55;77.89;99885.19;4969534;28;20053;-61
2020/12/12 08:04:36;;;;;;;54.17;28.58;;;;;;;7.56;78.05;99880.84;4969460;28;20039;-61
2020/12/12 08:07:20;;;;;;;56.53;30.88;;;;;;;7.59;77.96;99878.91;4967887;28;20051;-61
2020/12/12 08:09:51;;;;;;;50.75;28.98;;;;;;;7.60;78.21;99882.34;4969142;28;20491;-61
2020/12/12 08:12:31;;;;;;;57.60;30.35;;;;;;;7.61;78.12;99877.00;4969450;28;20117;-59
2020/12/12 08:15:08;;;;;;;57.20;30.75;;;;;;;7.63;78.04;99879.53;4968503;28;20057;-59
2020/12/12 08:17:34;;;;;;;58.47;30.85;;;;;;;7.65;78.05;99881.13;4967398;28;20050;-59
2020/12/12 08:20:02;;;;;;;56.97;29.77;;;;;;;7.67;78.04;99889.72;4967972;28;20049;-59
2020/12/12 08:22:29;;;;;;;57.15;31.60;;;;;;;7.69;77.96;99887.00;4964689;28;20121;-58
2020/12/12 08:24:57;;;;;;;57.50;31.35;;;;;;;7.71;77.96;99889.53;4968691;28;20101;-60
2020/12/12 08:27:26;;;;;;;55.15;28.83;;;;;;;7.73;78.07;99888.50;4967653;28;20058;-59
2020/12/12 08:29:58;;;;;;;58.15;30.67;;;;;;;7.76;78.15;99879.69;4969154;28;20073;-59
2020/12/12 08:32:46;;;;;;;57.03;30.90;;;;;;;7.78;77.79;99883.03;4969292;28;20051;-58
2020/12/12 08:35:12;;;;;;;55.47;29.60;;;;;;;7.79;77.74;99885.53;4967297;28;20086;-61
2020/12/12 08:37:39;;;;;;;52.33;28.63;;;;;;;7.80;78.05;99889.00;4969190;28;20105;-60
2020/12/12 08:40:10;;;;;;;54.35;30.02;;;;;;;7.81;77.77;99891.53;4966861;28;20480;-60
2020/12/12 08:42:37;;;;;;;54.53;30.70;;;;;;;7.81;77.89;99893.31;4968343;28;20046;-58
2020/12/12 08:45:12;;;;;;;57.28;30.15;;;;;;;7.82;77.91;99898.44;4969427;28;20043;-58
2020/12/12 08:47:38;;;;;;;50.08;28.13;;;;;;;7.83;77.96;99899.25;4969402;28;20396;-60
2020/12/12 08:50:05;;;;;;;53.88;29.17;;;;;;;7.83;77.85;99896.66;4969322;28;20142;-59
2020/12/12 08:52:31;;;;;;;51.35;28.17;;;;;;;7.81;77.80;99901.97;4969333;28;20455;-59
2020/12/12 08:55:02;;;;;;;53.75;29.35;;;;;;;7.80;77.71;99905.50;4968139;28;20066;-58
2020/12/12 08:57:28;;;;;;;58.15;29.20;;;;;;;7.80;77.72;99900.28;4970250;28;20062;-58
2020/12/12 09:00:05;;;;;;;56.90;31.02;;;;;;;7.81;77.74;99903.75;4977431;28;20046;-58
2020/12/12 09:02:31;;;;;;;53.80;30.10;;;;;;;7.81;77.68;99909.81;4968305;28;20051;-58
2020/12/12 09:05:11;;;;;;;50.53;27.77;;;;;;;7.84;77.62;99920.06;4971111;28;20125;-58
2020/12/12 09:07:38;;;;;;;44.72;26.55;;;;;;;7.87;77.58;99918.22;4969114;28;20051;-59
2020/12/12 09:10:13;;;;;;;52.60;28.38;;;;;;;7.87;77.62;99921.66;4968215;28;20054;-59
2020/12/12 09:12:46;;;;;;;49.60;27.50;;;;;;;7.88;77.64;99917.28;4969231;28;20514;-58
2020/12/12 09:15:13;;;;;;;51.42;28.70;;;;;;;7.89;77.63;99927.63;4969702;28;20051;-59
2020/12/12 09:17:40;;;;;;;49.80;29.88;;;;;;;7.89;77.38;99925.03;4970234;28;20063;-59
2020/12/12 09:20:08;;;;;;;56.10;30.02;;;;;;;7.90;77.82;99929.31;4971834;28;20102;-59
2020/12/12 09:22:35;;;;;;;47.78;28.45;;;;;;;7.91;77.88;99917.09;4977826;28;20589;-59
2020/12/12 09:25:02;;;;;;;49.63;28.90;;;;;;;7.92;78.21;99922.25;4976032;28;20050;-59
2020/12/12 09:27:32;;;;;;;87.45;54.30;;;;;;;7.94;77.98;99922.97;4973038;28;20110;-59
2020/12/12 09:29:58;;;;;;;63.20;38.17;;;;;;;7.97;78.14;99922.81;4972922;28;20526;-59
2020/12/12 09:32:24;;;;;;;52.10;29.95;;;;;;;8.00;78.03;99920.00;4972974;28;20439;-60
2020/12/12 09:34:51;;;;;;;53.50;31.90;;;;;;;8.04;78.03;99918.06;4972434;28;20043;-59
2020/12/12 09:37:17;;;;;;;175.63;100.32;;;;;;;8.06;78.07;99920.56;4971474;28;20050;-59
2020/12/12 09:39:43;;;;;;;172.10;95.25;;;;;;;8.08;78.22;99914.31;4971811;28;20105;-58
2020/12/12 09:42:09;;;;;;;406.73;232.85;;;;;;;8.10;78.16;99912.47;4972077;28;20047;-59
2020/12/12 09:44:35;;;;;;;336.27;173.50;;;;;;;8.11;78.05;99908.94;4972581;28;20047;-59
2020/12/12 09:47:01;;;;;;;233.32;125.90;;;;;;;8.15;77.96;99904.34;4971836;28;20050;-59
2020/12/12 09:49:27;;;;;;;103.47;57.50;;;;;;;8.21;78.20;99903.16;4972737;28;20054;-59
2020/12/12 09:51:53;;;;;;;67.50;38.58;;;;;;;8.25;78.27;99896.78;4971974;28;20042;-59
2020/12/12 09:54:20;;;;;;;60.08;35.75;;;;;;;8.29;78.25;99893.06;4971536;28;20079;-59
2020/12/12 09:56:49;;;;;;;81.32;44.13;;;;;;;8.32;78.03;99888.47;4971460;28;20114;-59
2020/12/12 09:59:17;;;;;;;66.95;41.30;;;;;;;8.38;78.24;99891.66;4970987;28;20105;-59
2020/12/12 10:01:44;;;;;;;71.75;42.65;;;;;;;8.41;78.04;99894.09;4971698;28;20047;-59
2020/12/12 10:04:10;;;;;;;52.08;30.38;;;;;;;8.43;78.12;99893.06;4971757;28;20475;-59
2020/12/12 10:06:37;;;;;;;50.95;30.23;;;;;;;8.46;77.96;99887.66;4970864;28;20050;-58
2020/12/12 10:09:03;;;;;;;55.53;33.30;;;;;;;8.49;78.12;99895.34;4970986;28;20046;-59
2020/12/12 10:11:29;;;;;;;53.83;31.50;;;;;;;8.52;78.07;99891.69;4971973;28;20051;-57
2020/12/12 10:13:55;;;;;;;53.50;34.35;;;;;;;8.53;78.19;99892.53;4971719;28;20105;-58
2020/12/12 10:16:21;;;;;;;54.60;32.60;;;;;;;8.54;77.96;99889.81;4971770;28;20101;-59
2020/12/12 10:18:47;;;;;;;54.92;37.28;;;;;;;8.52;78.04;99891.69;4972029;28;20443;-59
2020/12/12 10:21:14;;;;;;;51.13;33.38;;;;;;;8.53;78.14;99897.75;4972056;28;20047;-59
2020/12/12 10:23:40;;;;;;;54.95;31.50;;;;;;;8.50;78.21;99897.00;4971996;28;20051;-59
2020/12/12 10:26:10;;;;;;;59.67;37.78;;;;;;;8.50;78.20;99896.16;4972008;28;20117;-59
2020/12/12 10:28:36;;;;;;;60.33;36.63;;;;;;;8.50;78.22;99896.16;4972054;28;20053;-61
2020/12/12 10:31:03;;;;;;;54.72;33.97;;;;;;;8.53;78.24;99893.34;4969905;28;20051;-57
2020/12/12 10:33:29;;;;;;;53.20;33.00;;;;;;;8.54;78.24;99899.44;4972061;28;20410;-60
2020/12/12 10:35:55;;;;;;;72.55;43.47;;;;;;;8.55;78.32;99895.91;4960502;28;20047;-59
2020/12/12 10:38:21;;;;;;;239.85;133.15;;;;;;;8.54;78.38;99892.41;4970731;28;20062;-60
2020/12/12 10:40:59;;;;;;;78.75;46.55;;;;;;;8.58;78.20;99895.69;4971108;28;20131;-59
2020/12/12 10:43:25;;;;;;;114.85;63.65;;;;;;;8.59;78.33;99898.19;4971853;28;20454;-59
2020/12/12 10:45:51;;;;;;;68.78;39.92;;;;;;;8.58;78.25;99893.94;4971778;28;20495;-58
2020/12/12 10:48:17;;;;;;;59.92;37.92;;;;;;;8.60;78.18;99892.03;4971664;28;20058;-62
2020/12/12 10:50:44;;;;;;;54.97;36.17;;;;;;;8.57;77.88;99894.84;4971096;28;20069;-60
2020/12/12 10:53:10;;;;;;;48.28;31.52;;;;;;;8.55;77.99;99893.28;4970856;28;20057;-59
2020/12/12 10:55:36;;;;;;;71.43;42.00;;;;;;;8.53;77.86;99897.75;4971370;28;20050;-61
2020/12/12 10:58:02;;;;;;;37.55;19.63;;;;;;;8.57;78.04;99904.47;4971341;28;20055;-58
2020/12/12 11:00:29;;;;;;;66.18;39.20;;;;;;;8.65;78.11;99900.44;4971474;28;20542;-60
2020/12/12 11:02:55;;;;;;;50.10;33.50;;;;;;;8.71;78.06;99893.16;4971020;28;20043;-65
2020/12/12 11:05:22;;;;;;;54.47;33.85;;;;;;;8.72;78.07;99890.44;4969866;28;20051;-64
2020/12/12 11:07:51;;;;;;;58.17;33.28;;;;;;;9.04;79.69;99884.94;4970805;28;20083;-64
2020/12/12 11:10:17;;;;;;;40.33;26.20;;;;;;;9.14;78.81;99893.88;4968135;28;20051;-66
2020/12/12 11:12:45;;;;;;;42.22;27.92;;;;;;;9.10;77.88;99888.94;4957716;28;20898;-64
2020/12/12 11:15:13;;;;;;;51.63;31.48;;;;;;;9.04;77.43;99884.09;4970892;28;20053;-64
2020/12/12 11:17:41;;;;;;;46.33;31.00;;;;;;;8.98;77.31;99885.34;4970674;28;20062;-69
2020/12/12 11:20:07;;;;;;;56.72;35.80;;;;;;;8.98;77.07;99882.72;4970822;28;20482;-63
2020/12/12 11:22:33;;;;;;;76.32;47.15;;;;;;;8.97;76.92;99888.88;4966905;28;20047;-64
2020/12/12 11:24:59;;;;;;;44.83;28.27;;;;;;;8.94;76.88;99879.47;4964000;28;20046;-64
2020/12/12 11:27:25;;;;;;;41.85;27.10;;;;;;;8.94;76.90;99882.06;4968907;28;20054;-66